Ll Antias — UINP — position and weather

sailwx.info

Track history (hours):
 
Tides and Currents Weather Stations Pressure Air Temp Water Temp Dewpoint Dewpoint Depression Visibility Wind Speed Wind Dir Waves Ship Positions

Ll Antias

Last reported at 2017-Dec-17 00:29 UTC. Time now 2017-Dec-17 00:49 UTC.
Position N 69°44' E 030°05'.

Length 53 m; draft 6 m.

Type: Fishing. MMSI: 273843800.

Date/timePositionNaut miles runAvg speedWind from/ knotsBaromVisibWave heightAir tempDewpointWater temp
2017-Dec-17 00:29N 69°44' E 030°05'0 0.0
2017-Dec-16 23:59N 69°44' E 030°05'0 0.0
2017-Dec-16 23:29N 69°44' E 030°05'0 0.0
2017-Dec-16 23:00N 69°44' E 030°05'0 0.0
2017-Dec-16 22:30N 69°44' E 030°05'0 0.0
2017-Dec-16 22:00N 69°44' E 030°05'0 0.0
2017-Dec-16 21:30N 69°44' E 030°05'0 0.0
2017-Dec-16 20:58N 69°44' E 030°05'0 0.0
2017-Dec-16 20:28N 69°44' E 030°05'0 0.0
2017-Dec-16 19:58N 69°44' E 030°05'0 0.0
2017-Dec-16 19:28N 69°44' E 030°05'0 0.0
2017-Dec-16 18:58N 69°44' E 030°05'0 0.0
2017-Dec-16 18:28N 69°44' E 030°05'0 0.0
2017-Dec-16 17:58N 69°44' E 030°05'0 0.0
2017-Dec-16 17:28N 69°44' E 030°05'0 0.0
2017-Dec-16 16:58N 69°44' E 030°05'0 0.0
2017-Dec-16 16:30N 69°44' E 030°05'0 0.0
2017-Dec-16 16:00N 69°44' E 030°05'0 0.0
2017-Dec-16 15:30N 69°44' E 030°05'0 0.0
2017-Dec-16 15:00N 69°44' E 030°05'0 0.0
2017-Dec-16 14:29N 69°44' E 030°05'0 0.0
2017-Dec-16 14:00N 69°44' E 030°05'0 0.0
2017-Dec-16 13:30N 69°44' E 030°05'0 0.0
2017-Dec-16 13:00N 69°44' E 030°05'3 6.8
2017-Dec-16 12:30N 69°47' E 030°06'5 9.7
2017-Dec-16 12:00N 69°52' E 030°07'5 9.3
2017-Dec-16 11:30N 69°55' E 030°18'5 9.7
2017-Dec-16 11:00N 69°57' E 030°31'5 9.8
2017-Dec-16 10:30N 69°59' E 030°44'5 9.9
2017-Dec-16 10:00N 70°01' E 030°57'5 9.7
2017-Dec-16 09:30N 70°03' E 031°10'5 9.8
2017-Dec-16 09:00N 70°06' E 031°23'5 9.9
2017-Dec-16 08:30N 70°08' E 031°35'5 9.9
2017-Dec-16 08:00N 70°09' E 031°49'71 7.6
2017-Dec-15 22:40N 69°03' E 033°05'1 5.4
2017-Dec-15 22:30N 69°03' E 033°04'3 6.3
2017-Dec-15 22:00N 68°60' E 033°03'3 5.9
2017-Dec-15 21:29N 68°56' E 033°02'0 0.0
2017-Dec-15 20:59N 68°57' E 033°02'0 0.0
2017-Dec-15 20:29N 68°56' E 033°02'0 0.0
2017-Dec-15 19:59N 68°56' E 033°02'0 0.0
2017-Dec-15 19:29N 68°56' E 033°02'0 0.0
2017-Dec-15 18:59N 68°57' E 033°02'0 0.0
2017-Dec-15 18:29N 68°56' E 033°02'0 0.0
2017-Dec-15 17:59N 68°56' E 033°02'0 0.0
2017-Dec-15 17:29N 68°57' E 033°02'0 0.0
2017-Dec-15 16:59N 68°57' E 033°02'0 0.0
2017-Dec-15 16:29N 68°57' E 033°02'0 0.0
2017-Dec-15 15:59N 68°57' E 033°02'0 0.0
2017-Dec-15 15:29N 68°56' E 033°02'0 0.0
2017-Dec-15 14:59N 68°56' E 033°02'0 0.0
2017-Dec-15 14:29N 68°56' E 033°02'0 0.0
2017-Dec-15 13:59N 68°56' E 033°02'0 0.0
2017-Dec-15 13:29N 68°57' E 033°02'0 0.0
2017-Dec-15 12:59N 68°56' E 033°02'0 0.0
2017-Dec-15 12:29N 68°56' E 033°02'0 0.0
2017-Dec-15 11:59N 68°56' E 033°02'0 0.0
2017-Dec-15 11:29N 68°56' E 033°02'0 0.0
2017-Dec-15 10:56N 68°56' E 033°02'0 0.0
2017-Dec-15 10:29N 68°57' E 033°02'0 0.0
2017-Dec-15 09:59N 68°57' E 033°02'0 0.0
2017-Dec-15 09:29N 68°57' E 033°02'0 0.0
2017-Dec-15 08:59N 68°56' E 033°02'0 0.0
2017-Dec-15 08:29N 68°56' E 033°02'0 0.0
2017-Dec-15 07:59N 68°57' E 033°02'0 0.0
2017-Dec-15 07:29N 68°57' E 033°02'0 0.0
2017-Dec-15 06:56N 68°56' E 033°02'0 0.0
2017-Dec-15 06:29N 68°56' E 033°02'0 0.0
2017-Dec-15 05:59N 68°56' E 033°02'0 0.0
2017-Dec-15 05:29N 68°56' E 033°02'0 0.0
2017-Dec-15 04:59N 68°56' E 033°02'0 0.0
2017-Dec-15 04:29N 68°56' E 033°02'0 0.0
2017-Dec-15 03:59N 68°56' E 033°02'0 0.0
2017-Dec-15 02:29N 68°56' E 033°02'0 0.0
2017-Dec-15 00:59N 68°56' E 033°02'0 0.0
2017-Dec-15 00:29N 68°56' E 033°02'0 0.0
2017-Dec-14 18:30N 68°57' E 033°02'0 0.0
2017-Dec-14 18:00N 68°56' E 033°02'0 0.0
2017-Dec-14 17:30N 68°56' E 033°02'0 0.0
2017-Dec-14 17:00N 68°56' E 033°02'0 0.0
2017-Dec-14 16:30N 68°56' E 033°02'0 0.0
2017-Dec-14 16:00N 68°57' E 033°02'0 0.0
2017-Dec-14 15:00N 68°56' E 033°02'0 0.0
2017-Dec-14 14:30N 68°56' E 033°02'0 0.0
2017-Dec-14 14:00N 68°56' E 033°02'0 0.0
2017-Dec-14 13:30N 68°56' E 033°02'0 0.0
2017-Dec-14 13:00N 68°56' E 033°02'0 0.0
2017-Dec-14 12:30N 68°56' E 033°02'0 0.0
2017-Dec-14 12:00N 68°56' E 033°02'0 0.0
2017-Dec-14 11:30N 68°56' E 033°02'0 0.5
2017-Dec-14 11:01N 68°56' E 033°01'3 5.5
2017-Dec-14 10:30N 68°59' E 033°02'3 5.7
2017-Dec-14 10:00N 69°02' E 033°03'2 3.4
2017-Dec-14 09:30N 69°04' E 033°05'  
Track history (hours):
 
Tides and Currents Weather Stations Pressure Air Temp Water Temp Dewpoint Dewpoint Depression Visibility Wind Speed Wind Dir Waves Ship Positions

Ll Antias

Last reported at 2017-Dec-17 00:29 UTC. Time now 2017-Dec-17 00:49 UTC.
Position N 69°44' E 030°05'.

Length 53 m; draft 6 m.

Type: Fishing. MMSI: 273843800.

Date/timePositionNaut miles runAvg speedWind from/ knotsBaromVisibWave heightAir tempDewpointWater temp
2017-Dec-17 00:29N 69°44' E 030°05'0 0.0
2017-Dec-16 23:59N 69°44' E 030°05'0 0.0
2017-Dec-16 23:29N 69°44' E 030°05'0 0.0
2017-Dec-16 23:00N 69°44' E 030°05'0 0.0
2017-Dec-16 22:30N 69°44' E 030°05'0 0.0
2017-Dec-16 22:00N 69°44' E 030°05'0 0.0
2017-Dec-16 21:30N 69°44' E 030°05'0 0.0
2017-Dec-16 20:58N 69°44' E 030°05'0 0.0
2017-Dec-16 20:28N 69°44' E 030°05'0 0.0
2017-Dec-16 19:58N 69°44' E 030°05'0 0.0
2017-Dec-16 19:28N 69°44' E 030°05'0 0.0
2017-Dec-16 18:58N 69°44' E 030°05'0 0.0
2017-Dec-16 18:28N 69°44' E 030°05'0 0.0
2017-Dec-16 17:58N 69°44' E 030°05'0 0.0
2017-Dec-16 17:28N 69°44' E 030°05'0 0.0
2017-Dec-16 16:58N 69°44' E 030°05'0 0.0
2017-Dec-16 16:30N 69°44' E 030°05'0 0.0
2017-Dec-16 16:00N 69°44' E 030°05'0 0.0
2017-Dec-16 15:30N 69°44' E 030°05'0 0.0
2017-Dec-16 15:00N 69°44' E 030°05'0 0.0
2017-Dec-16 14:29N 69°44' E 030°05'0 0.0
2017-Dec-16 14:00N 69°44' E 030°05'0 0.0
2017-Dec-16 13:30N 69°44' E 030°05'0 0.0
2017-Dec-16 13:00N 69°44' E 030°05'3 6.8
2017-Dec-16 12:30N 69°47' E 030°06'5 9.7
2017-Dec-16 12:00N 69°52' E 030°07'5 9.3
2017-Dec-16 11:30N 69°55' E 030°18'5 9.7
2017-Dec-16 11:00N 69°57' E 030°31'5 9.8
2017-Dec-16 10:30N 69°59' E 030°44'5 9.9
2017-Dec-16 10:00N 70°01' E 030°57'5 9.7
2017-Dec-16 09:30N 70°03' E 031°10'5 9.8
2017-Dec-16 09:00N 70°06' E 031°23'5 9.9
2017-Dec-16 08:30N 70°08' E 031°35'5 9.9
2017-Dec-16 08:00N 70°09' E 031°49'71 7.6
2017-Dec-15 22:40N 69°03' E 033°05'1 5.4
2017-Dec-15 22:30N 69°03' E 033°04'3 6.3
2017-Dec-15 22:00N 68°60' E 033°03'3 5.9
2017-Dec-15 21:29N 68°56' E 033°02'0 0.0
2017-Dec-15 20:59N 68°57' E 033°02'0 0.0
2017-Dec-15 20:29N 68°56' E 033°02'0 0.0
2017-Dec-15 19:59N 68°56' E 033°02'0 0.0
2017-Dec-15 19:29N 68°56' E 033°02'0 0.0
2017-Dec-15 18:59N 68°57' E 033°02'0 0.0
2017-Dec-15 18:29N 68°56' E 033°02'0 0.0
2017-Dec-15 17:59N 68°56' E 033°02'0 0.0
2017-Dec-15 17:29N 68°57' E 033°02'0 0.0
2017-Dec-15 16:59N 68°57' E 033°02'0 0.0
2017-Dec-15 16:29N 68°57' E 033°02'0 0.0
2017-Dec-15 15:59N 68°57' E 033°02'0 0.0
2017-Dec-15 15:29N 68°56' E 033°02'0 0.0
2017-Dec-15 14:59N 68°56' E 033°02'0 0.0
2017-Dec-15 14:29N 68°56' E 033°02'0 0.0
2017-Dec-15 13:59N 68°56' E 033°02'0 0.0
2017-Dec-15 13:29N 68°57' E 033°02'0 0.0
2017-Dec-15 12:59N 68°56' E 033°02'0 0.0
2017-Dec-15 12:29N 68°56' E 033°02'0 0.0
2017-Dec-15 11:59N 68°56' E 033°02'0 0.0
2017-Dec-15 11:29N 68°56' E 033°02'0 0.0
2017-Dec-15 10:56N 68°56' E 033°02'0 0.0
2017-Dec-15 10:29N 68°57' E 033°02'0 0.0
2017-Dec-15 09:59N 68°57' E 033°02'0 0.0
2017-Dec-15 09:29N 68°57' E 033°02'0 0.0
2017-Dec-15 08:59N 68°56' E 033°02'0 0.0
2017-Dec-15 08:29N 68°56' E 033°02'0 0.0
2017-Dec-15 07:59N 68°57' E 033°02'0 0.0
2017-Dec-15 07:29N 68°57' E 033°02'0 0.0
2017-Dec-15 06:56N 68°56' E 033°02'0 0.0
2017-Dec-15 06:29N 68°56' E 033°02'0 0.0
2017-Dec-15 05:59N 68°56' E 033°02'0 0.0
2017-Dec-15 05:29N 68°56' E 033°02'0 0.0
2017-Dec-15 04:59N 68°56' E 033°02'0 0.0
2017-Dec-15 04:29N 68°56' E 033°02'0 0.0
2017-Dec-15 03:59N 68°56' E 033°02'0 0.0
2017-Dec-15 02:29N 68°56' E 033°02'0 0.0
2017-Dec-15 00:59N 68°56' E 033°02'0 0.0
2017-Dec-15 00:29N 68°56' E 033°02'0 0.0
2017-Dec-14 18:30N 68°57' E 033°02'0 0.0
2017-Dec-14 18:00N 68°56' E 033°02'0 0.0
2017-Dec-14 17:30N 68°56' E 033°02'0 0.0
2017-Dec-14 17:00N 68°56' E 033°02'0 0.0
2017-Dec-14 16:30N 68°56' E 033°02'0 0.0
2017-Dec-14 16:00N 68°57' E 033°02'0 0.0
2017-Dec-14 15:00N 68°56' E 033°02'0 0.0
2017-Dec-14 14:30N 68°56' E 033°02'0 0.0
2017-Dec-14 14:00N 68°56' E 033°02'0 0.0
2017-Dec-14 13:30N 68°56' E 033°02'0 0.0
2017-Dec-14 13:00N 68°56' E 033°02'0 0.0
2017-Dec-14 12:30N 68°56' E 033°02'0 0.0
2017-Dec-14 12:00N 68°56' E 033°02'0 0.0
2017-Dec-14 11:30N 68°56' E 033°02'0 0.5
2017-Dec-14 11:01N 68°56' E 033°01'3 5.5
2017-Dec-14 10:30N 68°59' E 033°02'3 5.7
2017-Dec-14 10:00N 69°02' E 033°03'2 3.4
2017-Dec-14 09:30N 69°04' E 033°05'  

Dump ship's entire track history